LFKB Airport Information

Runway Information
Runway 16 Length 8266 ft width 148 ft
Elevation 13 ft Threshold 0 ft Heading 163
Runway 34 Length 8266 ft Width 148 ft
Elevation 26 ft Threshold 0 ft Heading 343
Airport Frequencies
Type AFIS Name BASTIA INF Frequency 124.725 MHZ
Type APP Name BASTIA RAD Frequency 123.825 MHZ
Type ARR Name BASTIA APP Frequency 37.85 MHZ
Type ATIS Name BASTIA ATI Frequency 125.925 MHZ
Type GND Name GND Frequency 121.825 MHZ
Type TWR Name BASTIA TWR Frequency 118 MHZ
Airport Navaids
Type VOR-DME Name Bastia Frequency 114150 KHZ
Airport Weather Information & NOTAM
ADDS - METARS form results

(1735 UTC 24 May 2018)
 
METAR text: LFKB 241730Z AUTO 13004KT CAVOK 22/18 Q1017 NOSIG
Conditions at: LFKB (BASTIA/PORETTA , FR) observed 1730 UTC 24 May 2018
Temperature: 22.0°C (72°F)
Dewpoint: 18.0°C (64°F) [RH = 78%]
Pressure (altimeter): 30.03 inches Hg (1017.0 mb)
Winds: from the SE (130 degrees) at 5 MPH (4 knots; 2.1 m/s)
Visibility: 6 or more miles (10+ km)
Ceiling: ceiling and visibility are OK
Clouds: unknown
Weather: no significant weather observed at this time

METAR text: LFKB 241700Z AUTO 13006KT CAVOK 22/18 Q1016 NOSIG
Conditions at: LFKB (BASTIA/PORETTA , FR) observed 1700 UTC 24 May 2018
Temperature: 22.0°C (72°F)
Dewpoint: 18.0°C (64°F) [RH = 78%]
Pressure (altimeter): 30.00 inches Hg (1016.0 mb)
Winds: from the SE (130 degrees) at 7 MPH (6 knots; 3.1 m/s)
Visibility: 6 or more miles (10+ km)
Ceiling: ceiling and visibility are OK
Clouds: unknown
Weather: no significant weather observed at this time